Details From KSBP - San Luis Co Rgnl
To KIZA - SANTA YNEZ
Flight Number -
Tags decoded
Created
Modified
Stats Distance 50 nm / 93 km
Max Altitude 0 ft / 0 m
Waypoints 5
Social Downloads 0
Likes 0
Share VATSIM

Download

Looking for another format? Having issues loading an existing format? Contact us
Advertisement - Login to hide

Notes

Requested: KSBP AVILA ORCUT AFOXY KIZA

Route

KSBP AVILA ORCUT AFOXY KIZA

ID Type Via Altitude (ft/m) Position (lat/lon) Dist (leg/tot) Name
O KSBP APT - 0 / 0 35.23714 / -120.64346 - / 0 nm San Luis Co Rgnl
AVILA FIX - 0 / 0 35.14636 / -120.66045 5 / 5 nm
ORCUT FIX - 0 / 0 34.85474 / -120.38915 22 / 27 nm
AFOXY FIX - 0 / 0 34.60868 / -120.16213 18 / 46 nm
O KIZA APT - 0 / 0 34.60682 / -120.07555 4 / 50 nm SANTA YNEZ

Altitude Profile

Advertisement - Login to hide

KSBP

Details ICAO KSBP (SBP)
Name San Luis Co Rgnl
Region United States
Timezone America/Los_Angeles (UTC-7.0)
Stats Elevation 212 ft / 65 m (AMSL)
Location 35.237100° -120.643000°
Runways 2
Magnetic Variation 12.603° E

METAR

KSBP 170156Z 32006KT 10SM CLR 16/11 A3003 RMK AO2 SLP169 T01610106

Decode

TAF

TAF KSBP 162338Z 1700/1724 31016KT P6SM SKC FM170200 31008KT P6SM SKC FM170500 VRB03KT P6SM SKC FM172000 30010KT P6SM SKC

Decode

Departure Runways

ID Width Length Bearing (true/mag) Surface Threshold Overrun Markings Lighting
07 98 ft / 30 m 2,522 ft / 769 m 89.79° / 77.19° ASPHALT 0 ft / 0 m 0 ft / 0 m VISUAL
11 151 ft / 46 m 6,106 ft / 1,861 m 124.87° / 112.26° ASPHALT 801 ft / 244 m 600 ft / 183 m PREC-APP EDGE THRESHOLD MALSR REIL-OMNI
25 98 ft / 30 m 2,522 ft / 769 m 269.80° / 257.19° ASPHALT 0 ft / 0 m 0 ft / 0 m VISUAL
29 151 ft / 46 m 6,106 ft / 1,861 m 304.88° / 292.27° ASPHALT 499 ft / 152 m 600 ft / 183 m APP EDGE THRESHOLD

KIZA

Details ICAO KIZA
Name SANTA YNEZ
Region United States
Timezone America/Los_Angeles (UTC-7.0)
Stats Elevation 671 ft / 205 m (AMSL)
Location 34.606800° -120.076000°
Runways 1
Magnetic Variation 12.376° E

METAR

KIZA 170155Z AUTO 25008KT 10SM CLR 17/09 A3005 RMK AO2

Decode

TAF

Not found

Destination Runways

ID Width Length Bearing (true/mag) Surface Threshold Overrun Markings Lighting
08 75 ft / 23 m 2,798 ft / 853 m 98.28° / 85.91° ASPHALT 0 ft / 0 m 0 ft / 0 m APP EDGE THRESHOLD
26 75 ft / 23 m 2,798 ft / 853 m 278.29° / 265.91° ASPHALT 0 ft / 0 m 0 ft / 0 m APP EDGE THRESHOLD

Popular Alternatives